sensor_id;sensor_type;location;lat;lon;timestamp;P1;durP1;ratioP1;P2;durP2;ratioP2
77451;SDS011;66537;52.370;4.832;2023-07-31T00:02:01;18.02;;;3.28;;
77451;SDS011;66537;52.370;4.832;2023-07-31T00:04:26;19.02;;;3.13;;
77451;SDS011;66537;52.370;4.832;2023-07-31T00:06:52;19.27;;;3.38;;
77451;SDS011;66537;52.370;4.832;2023-07-31T00:09:17;24.93;;;4.77;;
77451;SDS011;66537;52.370;4.832;2023-07-31T00:11:42;14.93;;;3.93;;
77451;SDS011;66537;52.370;4.832;2023-07-31T00:14:08;15.07;;;3.60;;
77451;SDS011;66537;52.370;4.832;2023-07-31T00:16:33;15.97;;;4.23;;
77451;SDS011;66537;52.370;4.832;2023-07-31T00:18:58;19.70;;;4.10;;
77451;SDS011;66537;52.370;4.832;2023-07-31T00:21:24;13.50;;;3.88;;
77451;SDS011;66537;52.370;4.832;2023-07-31T00:23:49;17.23;;;4.23;;
77451;SDS011;66537;52.370;4.832;2023-07-31T00:26:14;23.25;;;4.18;;
77451;SDS011;66537;52.370;4.832;2023-07-31T00:28:40;20.33;;;3.78;;
77451;SDS011;66537;52.370;4.832;2023-07-31T00:31:05;20.38;;;5.47;;
77451;SDS011;66537;52.370;4.832;2023-07-31T00:33:31;22.90;;;4.77;;
77451;SDS011;66537;52.370;4.832;2023-07-31T00:35:56;25.85;;;5.47;;
77451;SDS011;66537;52.370;4.832;2023-07-31T00:38:22;17.90;;;4.23;;
77451;SDS011;66537;52.370;4.832;2023-07-31T00:40:47;24.25;;;5.55;;
77451;SDS011;66537;52.370;4.832;2023-07-31T00:43:12;26.17;;;5.03;;
77451;SDS011;66537;52.370;4.832;2023-07-31T00:45:38;29.83;;;5.32;;
77451;SDS011;66537;52.370;4.832;2023-07-31T00:48:04;29.08;;;6.45;;
77451;SDS011;66537;52.370;4.832;2023-07-31T00:50:31;25.88;;;5.68;;
77451;SDS011;66537;52.370;4.832;2023-07-31T00:52:56;31.90;;;6.45;;
77451;SDS011;66537;52.370;4.832;2023-07-31T00:55:22;33.60;;;6.32;;
77451;SDS011;66537;52.370;4.832;2023-07-31T00:57:48;29.40;;;5.82;;
77451;SDS011;66537;52.370;4.832;2023-07-31T01:00:15;24.85;;;6.28;;
77451;SDS011;66537;52.370;4.832;2023-07-31T01:02:40;32.92;;;5.47;;
77451;SDS011;66537;52.370;4.832;2023-07-31T01:05:06;31.13;;;7.20;;
77451;SDS011;66537;52.370;4.832;2023-07-31T01:10:20;30.50;;;6.65;;
77451;SDS011;66537;52.370;4.832;2023-07-31T01:12:48;37.60;;;7.15;;
77451;SDS011;66537;52.370;4.832;2023-07-31T01:15:16;34.47;;;7.35;;
77451;SDS011;66537;52.370;4.832;2023-07-31T01:17:42;35.65;;;7.15;;
77451;SDS011;66537;52.370;4.832;2023-07-31T01:20:13;37.90;;;7.05;;
77451;SDS011;66537;52.370;4.832;2023-07-31T01:28:10;42.63;;;9.00;;
77451;SDS011;66537;52.370;4.832;2023-07-31T01:30:43;37.78;;;8.07;;
77451;SDS011;66537;52.370;4.832;2023-07-31T01:33:12;35.13;;;7.35;;
77451;SDS011;66537;52.370;4.832;2023-07-31T01:35:42;36.03;;;7.32;;
77451;SDS011;66537;52.370;4.832;2023-07-31T01:38:10;39.45;;;8.52;;
77451;SDS011;66537;52.370;4.832;2023-07-31T01:40:35;33.08;;;6.57;;
77451;SDS011;66537;52.370;4.832;2023-07-31T01:43:01;42.08;;;7.22;;
77451;SDS011;66537;52.370;4.832;2023-07-31T01:45:27;39.03;;;9.00;;
77451;SDS011;66537;52.370;4.832;2023-07-31T01:47:52;36.88;;;8.18;;
77451;SDS011;66537;52.370;4.832;2023-07-31T01:50:17;38.08;;;8.45;;
77451;SDS011;66537;52.370;4.832;2023-07-31T01:52:43;34.78;;;8.45;;
77451;SDS011;66537;52.370;4.832;2023-07-31T01:55:08;31.73;;;7.75;;
77451;SDS011;66537;52.370;4.832;2023-07-31T01:57:33;35.45;;;8.50;;
77451;SDS011;66537;52.370;4.832;2023-07-31T01:59:59;40.92;;;7.47;;
77451;SDS011;66537;52.370;4.832;2023-07-31T02:02:24;37.95;;;8.55;;
77451;SDS011;66537;52.370;4.832;2023-07-31T02:04:49;43.50;;;7.78;;
77451;SDS011;66537;52.370;4.832;2023-07-31T02:07:15;25.27;;;7.82;;
77451;SDS011;66537;52.370;4.832;2023-07-31T02:09:40;38.60;;;7.50;;
77451;SDS011;66537;52.370;4.832;2023-07-31T02:12:06;43.25;;;8.68;;
77451;SDS011;66537;52.370;4.832;2023-07-31T02:14:33;29.90;;;7.38;;
77451;SDS011;66537;52.370;4.832;2023-07-31T02:16:59;31.38;;;8.15;;
77451;SDS011;66537;52.370;4.832;2023-07-31T02:19:24;34.85;;;7.57;;
77451;SDS011;66537;52.370;4.832;2023-07-31T02:21:50;36.50;;;7.53;;
77451;SDS011;66537;52.370;4.832;2023-07-31T02:24:15;37.07;;;8.13;;
77451;SDS011;66537;52.370;4.832;2023-07-31T02:26:40;37.27;;;8.20;;
77451;SDS011;66537;52.370;4.832;2023-07-31T02:29:07;35.05;;;8.57;;
77451;SDS011;66537;52.370;4.832;2023-07-31T02:31:33;35.53;;;8.05;;
77451;SDS011;66537;52.370;4.832;2023-07-31T02:33:58;42.03;;;8.93;;
77451;SDS011;66537;52.370;4.832;2023-07-31T02:36:23;38.05;;;7.90;;
77451;SDS011;66537;52.370;4.832;2023-07-31T02:38:49;28.35;;;6.45;;
77451;SDS011;66537;52.370;4.832;2023-07-31T02:41:14;43.65;;;9.60;;
77451;SDS011;66537;52.370;4.832;2023-07-31T02:43:39;32.13;;;7.85;;
77451;SDS011;66537;52.370;4.832;2023-07-31T02:46:05;32.28;;;8.32;;
77451;SDS011;66537;52.370;4.832;2023-07-31T02:48:30;36.05;;;7.60;;
77451;SDS011;66537;52.370;4.832;2023-07-31T02:50:56;39.88;;;7.88;;
77451;SDS011;66537;52.370;4.832;2023-07-31T02:53:21;37.90;;;7.72;;
77451;SDS011;66537;52.370;4.832;2023-07-31T02:55:48;36.88;;;8.05;;
77451;SDS011;66537;52.370;4.832;2023-07-31T02:58:13;30.40;;;7.35;;
77451;SDS011;66537;52.370;4.832;2023-07-31T03:00:42;35.90;;;7.93;;
77451;SDS011;66537;52.370;4.832;2023-07-31T03:03:08;32.30;;;7.30;;
77451;SDS011;66537;52.370;4.832;2023-07-31T03:05:33;29.00;;;6.88;;
77451;SDS011;66537;52.370;4.832;2023-07-31T03:07:59;35.42;;;7.43;;
77451;SDS011;66537;52.370;4.832;2023-07-31T03:10:24;39.47;;;9.02;;
77451;SDS011;66537;52.370;4.832;2023-07-31T03:12:49;34.23;;;7.17;;
77451;SDS011;66537;52.370;4.832;2023-07-31T03:15:15;37.72;;;8.23;;
77451;SDS011;66537;52.370;4.832;2023-07-31T03:17:40;40.80;;;8.90;;
77451;SDS011;66537;52.370;4.832;2023-07-31T03:20:06;32.85;;;7.47;;
77451;SDS011;66537;52.370;4.832;2023-07-31T03:22:31;34.35;;;8.07;;
77451;SDS011;66537;52.370;4.832;2023-07-31T03:24:57;33.92;;;7.32;;
77451;SDS011;66537;52.370;4.832;2023-07-31T03:27:22;33.67;;;7.32;;
77451;SDS011;66537;52.370;4.832;2023-07-31T03:29:47;35.63;;;8.52;;
77451;SDS011;66537;52.370;4.832;2023-07-31T03:32:14;32.83;;;7.35;;
77451;SDS011;66537;52.370;4.832;2023-07-31T03:34:40;33.08;;;7.18;;
77451;SDS011;66537;52.370;4.832;2023-07-31T03:37:05;31.58;;;6.95;;
77451;SDS011;66537;52.370;4.832;2023-07-31T03:39:31;37.38;;;8.65;;
77451;SDS011;66537;52.370;4.832;2023-07-31T03:41:56;34.35;;;7.57;;
77451;SDS011;66537;52.370;4.832;2023-07-31T03:44:21;39.03;;;8.35;;
77451;SDS011;66537;52.370;4.832;2023-07-31T03:46:47;43.80;;;8.75;;
77451;SDS011;66537;52.370;4.832;2023-07-31T03:49:12;46.97;;;8.00;;
77451;SDS011;66537;52.370;4.832;2023-07-31T03:51:38;47.22;;;9.05;;
77451;SDS011;66537;52.370;4.832;2023-07-31T03:54:03;39.97;;;8.85;;
77451;SDS011;66537;52.370;4.832;2023-07-31T03:56:28;37.83;;;8.02;;
77451;SDS011;66537;52.370;4.832;2023-07-31T03:58:54;43.38;;;9.75;;
77451;SDS011;66537;52.370;4.832;2023-07-31T04:01:19;50.95;;;9.95;;
77451;SDS011;66537;52.370;4.832;2023-07-31T04:03:45;40.70;;;8.43;;
77451;SDS011;66537;52.370;4.832;2023-07-31T04:06:10;38.85;;;8.95;;
77451;SDS011;66537;52.370;4.832;2023-07-31T04:08:35;40.15;;;8.82;;
77451;SDS011;66537;52.370;4.832;2023-07-31T04:11:01;38.45;;;8.50;;
77451;SDS011;66537;52.370;4.832;2023-07-31T04:13:26;33.88;;;8.50;;
77451;SDS011;66537;52.370;4.832;2023-07-31T04:15:53;32.35;;;8.10;;
77451;SDS011;66537;52.370;4.832;2023-07-31T04:18:19;35.05;;;8.70;;
77451;SDS011;66537;52.370;4.832;2023-07-31T04:20:45;40.90;;;7.38;;
77451;SDS011;66537;52.370;4.832;2023-07-31T04:23:10;35.40;;;8.07;;
77451;SDS011;66537;52.370;4.832;2023-07-31T04:25:36;36.05;;;7.90;;
77451;SDS011;66537;52.370;4.832;2023-07-31T04:28:01;28.83;;;7.05;;
77451;SDS011;66537;52.370;4.832;2023-07-31T04:30:27;35.42;;;6.93;;
77451;SDS011;66537;52.370;4.832;2023-07-31T04:32:52;36.22;;;6.85;;
77451;SDS011;66537;52.370;4.832;2023-07-31T04:35:17;28.85;;;6.03;;
77451;SDS011;66537;52.370;4.832;2023-07-31T04:37:43;23.00;;;6.32;;
77451;SDS011;66537;52.370;4.832;2023-07-31T04:40:09;27.85;;;4.70;;
77451;SDS011;66537;52.370;4.832;2023-07-31T04:42:35;18.38;;;4.45;;
77451;SDS011;66537;52.370;4.832;2023-07-31T04:45:00;20.67;;;4.53;;
77451;SDS011;66537;52.370;4.832;2023-07-31T04:47:26;16.27;;;4.37;;
77451;SDS011;66537;52.370;4.832;2023-07-31T04:49:51;18.50;;;3.63;;
77451;SDS011;66537;52.370;4.832;2023-07-31T04:52:16;15.88;;;3.45;;
77451;SDS011;66537;52.370;4.832;2023-07-31T04:54:42;16.00;;;3.27;;
77451;SDS011;66537;52.370;4.832;2023-07-31T04:57:07;14.65;;;3.75;;
77451;SDS011;66537;52.370;4.832;2023-07-31T04:59:32;12.02;;;2.85;;
77451;SDS011;66537;52.370;4.832;2023-07-31T05:01:58;10.60;;;2.45;;
77451;SDS011;66537;52.370;4.832;2023-07-31T05:04:23;10.02;;;2.05;;
77451;SDS011;66537;52.370;4.832;2023-07-31T05:06:48;11.43;;;2.53;;
77451;SDS011;66537;52.370;4.832;2023-07-31T05:09:14;12.60;;;2.83;;
77451;SDS011;66537;52.370;4.832;2023-07-31T05:11:39;9.73;;;1.75;;
77451;SDS011;66537;52.370;4.832;2023-07-31T05:14:05;12.15;;;2.70;;
77451;SDS011;66537;52.370;4.832;2023-07-31T05:16:31;11.20;;;2.20;;
77451;SDS011;66537;52.370;4.832;2023-07-31T05:18:56;10.50;;;2.03;;
77451;SDS011;66537;52.370;4.832;2023-07-31T05:21:22;7.72;;;1.80;;
77451;SDS011;66537;52.370;4.832;2023-07-31T05:23:47;8.32;;;1.77;;
77451;SDS011;66537;52.370;4.832;2023-07-31T05:26:13;9.43;;;1.85;;
77451;SDS011;66537;52.370;4.832;2023-07-31T05:28:38;7.13;;;1.40;;
77451;SDS011;66537;52.370;4.832;2023-07-31T05:31:04;8.23;;;2.22;;
77451;SDS011;66537;52.370;4.832;2023-07-31T05:33:30;7.25;;;1.35;;
77451;SDS011;66537;52.370;4.832;2023-07-31T05:35:56;6.97;;;1.35;;
77451;SDS011;66537;52.370;4.832;2023-07-31T05:38:21;4.47;;;1.15;;
77451;SDS011;66537;52.370;4.832;2023-07-31T05:40:47;5.28;;;1.17;;
77451;SDS011;66537;52.370;4.832;2023-07-31T05:43:12;4.38;;;0.60;;
77451;SDS011;66537;52.370;4.832;2023-07-31T05:45:38;5.07;;;0.80;;
77451;SDS011;66537;52.370;4.832;2023-07-31T05:48:03;4.40;;;0.77;;
77451;SDS011;66537;52.370;4.832;2023-07-31T05:50:29;7.82;;;1.00;;
77451;SDS011;66537;52.370;4.832;2023-07-31T05:52:55;4.32;;;0.93;;
77451;SDS011;66537;52.370;4.832;2023-07-31T05:55:20;3.92;;;0.60;;
77451;SDS011;66537;52.370;4.832;2023-07-31T05:57:46;4.78;;;1.17;;
77451;SDS011;66537;52.370;4.832;2023-07-31T06:00:12;5.07;;;1.42;;
77451;SDS011;66537;52.370;4.832;2023-07-31T06:02:38;3.88;;;1.25;;
77451;SDS011;66537;52.370;4.832;2023-07-31T06:05:04;5.03;;;1.05;;
77451;SDS011;66537;52.370;4.832;2023-07-31T06:07:31;3.97;;;0.98;;
77451;SDS011;66537;52.370;4.832;2023-07-31T06:09:56;3.85;;;0.93;;
77451;SDS011;66537;52.370;4.832;2023-07-31T06:12:27;4.25;;;1.02;;
77451;SDS011;66537;52.370;4.832;2023-07-31T06:14:52;5.55;;;1.20;;
77451;SDS011;66537;52.370;4.832;2023-07-31T06:17:17;4.72;;;1.30;;
77451;SDS011;66537;52.370;4.832;2023-07-31T06:19:43;7.57;;;1.40;;
77451;SDS011;66537;52.370;4.832;2023-07-31T06:22:09;7.18;;;2.00;;
77451;SDS011;66537;52.370;4.832;2023-07-31T06:24:34;6.25;;;1.33;;
77451;SDS011;66537;52.370;4.832;2023-07-31T06:26:59;4.78;;;1.58;;
77451;SDS011;66537;52.370;4.832;2023-07-31T06:29:25;4.45;;;1.55;;
77451;SDS011;66537;52.370;4.832;2023-07-31T06:31:50;5.50;;;1.45;;
77451;SDS011;66537;52.370;4.832;2023-07-31T06:34:15;4.00;;;1.23;;
77451;SDS011;66537;52.370;4.832;2023-07-31T06:36:41;3.70;;;1.10;;
77451;SDS011;66537;52.370;4.832;2023-07-31T06:39:06;6.03;;;1.42;;
77451;SDS011;66537;52.370;4.832;2023-07-31T06:41:31;6.15;;;1.40;;
77451;SDS011;66537;52.370;4.832;2023-07-31T06:43:57;6.28;;;1.50;;
77451;SDS011;66537;52.370;4.832;2023-07-31T06:46:22;7.63;;;2.03;;
77451;SDS011;66537;52.370;4.832;2023-07-31T06:48:48;9.07;;;2.15;;
77451;SDS011;66537;52.370;4.832;2023-07-31T06:51:14;12.68;;;3.30;;
77451;SDS011;66537;52.370;4.832;2023-07-31T06:53:39;9.43;;;1.95;;
77451;SDS011;66537;52.370;4.832;2023-07-31T06:56:05;11.63;;;2.13;;
77451;SDS011;66537;52.370;4.832;2023-07-31T06:58:30;9.50;;;2.10;;
77451;SDS011;66537;52.370;4.832;2023-07-31T07:00:56;15.32;;;3.00;;
77451;SDS011;66537;52.370;4.832;2023-07-31T07:03:21;10.05;;;2.47;;
77451;SDS011;66537;52.370;4.832;2023-07-31T07:05:46;11.23;;;2.10;;
77451;SDS011;66537;52.370;4.832;2023-07-31T07:08:12;12.68;;;1.70;;
77451;SDS011;66537;52.370;4.832;2023-07-31T07:10:37;9.60;;;2.58;;
77451;SDS011;66537;52.370;4.832;2023-07-31T07:13:02;10.43;;;2.28;;
77451;SDS011;66537;52.370;4.832;2023-07-31T07:15:28;15.93;;;2.80;;
77451;SDS011;66537;52.370;4.832;2023-07-31T07:17:54;12.25;;;2.17;;
77451;SDS011;66537;52.370;4.832;2023-07-31T07:20:19;9.23;;;1.98;;
77451;SDS011;66537;52.370;4.832;2023-07-31T07:22:45;10.73;;;2.63;;
77451;SDS011;66537;52.370;4.832;2023-07-31T07:25:10;12.70;;;2.80;;
77451;SDS011;66537;52.370;4.832;2023-07-31T07:27:36;24.80;;;4.00;;
77451;SDS011;66537;52.370;4.832;2023-07-31T07:30:02;12.32;;;2.78;;
77451;SDS011;66537;52.370;4.832;2023-07-31T07:32:28;11.25;;;2.55;;
77451;SDS011;66537;52.370;4.832;2023-07-31T07:34:54;17.27;;;2.72;;
77451;SDS011;66537;52.370;4.832;2023-07-31T07:37:20;12.18;;;2.90;;
77451;SDS011;66537;52.370;4.832;2023-07-31T07:39:45;15.80;;;3.35;;
77451;SDS011;66537;52.370;4.832;2023-07-31T07:42:11;16.38;;;3.60;;
77451;SDS011;66537;52.370;4.832;2023-07-31T07:44:36;16.05;;;3.72;;
77451;SDS011;66537;52.370;4.832;2023-07-31T07:47:02;19.17;;;3.15;;
77451;SDS011;66537;52.370;4.832;2023-07-31T07:49:28;14.02;;;3.80;;
77451;SDS011;66537;52.370;4.832;2023-07-31T07:51:53;13.80;;;2.67;;
77451;SDS011;66537;52.370;4.832;2023-07-31T07:54:18;14.07;;;2.08;;
77451;SDS011;66537;52.370;4.832;2023-07-31T07:56:46;20.33;;;2.97;;
77451;SDS011;66537;52.370;4.832;2023-07-31T07:59:11;13.95;;;2.47;;
77451;SDS011;66537;52.370;4.832;2023-07-31T08:01:36;14.55;;;2.72;;
77451;SDS011;66537;52.370;4.832;2023-07-31T08:04:02;16.40;;;3.63;;
77451;SDS011;66537;52.370;4.832;2023-07-31T08:06:27;17.55;;;3.58;;
77451;SDS011;66537;52.370;4.832;2023-07-31T08:08:54;13.32;;;2.20;;
77451;SDS011;66537;52.370;4.832;2023-07-31T08:11:20;13.02;;;2.63;;
77451;SDS011;66537;52.370;4.832;2023-07-31T08:13:47;12.15;;;2.30;;
77451;SDS011;66537;52.370;4.832;2023-07-31T08:16:12;17.48;;;3.10;;
77451;SDS011;66537;52.370;4.832;2023-07-31T08:18:37;15.02;;;3.03;;
77451;SDS011;66537;52.370;4.832;2023-07-31T08:21:03;14.07;;;2.42;;
77451;SDS011;66537;52.370;4.832;2023-07-31T08:23:28;14.20;;;3.33;;
77451;SDS011;66537;52.370;4.832;2023-07-31T08:25:54;14.90;;;3.20;;
77451;SDS011;66537;52.370;4.832;2023-07-31T08:28:19;20.33;;;3.20;;
77451;SDS011;66537;52.370;4.832;2023-07-31T08:30:44;13.60;;;2.35;;
77451;SDS011;66537;52.370;4.832;2023-07-31T08:33:10;12.77;;;2.58;;
77451;SDS011;66537;52.370;4.832;2023-07-31T08:35:36;17.13;;;2.88;;
77451;SDS011;66537;52.370;4.832;2023-07-31T08:38:01;10.60;;;1.90;;
77451;SDS011;66537;52.370;4.832;2023-07-31T08:40:26;13.13;;;2.65;;
77451;SDS011;66537;52.370;4.832;2023-07-31T08:42:53;14.80;;;2.25;;
77451;SDS011;66537;52.370;4.832;2023-07-31T08:45:21;10.30;;;2.42;;
77451;SDS011;66537;52.370;4.832;2023-07-31T08:47:48;17.25;;;2.70;;
77451;SDS011;66537;52.370;4.832;2023-07-31T08:50:15;15.00;;;3.25;;
77451;SDS011;66537;52.370;4.832;2023-07-31T08:52:42;16.92;;;3.03;;
77451;SDS011;66537;52.370;4.832;2023-07-31T08:55:07;14.80;;;2.67;;
77451;SDS011;66537;52.370;4.832;2023-07-31T08:57:34;14.68;;;2.70;;
77451;SDS011;66537;52.370;4.832;2023-07-31T09:00:02;20.10;;;2.97;;
77451;SDS011;66537;52.370;4.832;2023-07-31T09:02:31;17.73;;;3.03;;
77451;SDS011;66537;52.370;4.832;2023-07-31T09:05:06;22.45;;;4.00;;
77451;SDS011;66537;52.370;4.832;2023-07-31T09:07:33;28.38;;;3.47;;
77451;SDS011;66537;52.370;4.832;2023-07-31T09:10:00;23.42;;;4.25;;
77451;SDS011;66537;52.370;4.832;2023-07-31T09:12:25;27.83;;;4.50;;
77451;SDS011;66537;52.370;4.832;2023-07-31T09:14:51;20.08;;;3.90;;
77451;SDS011;66537;52.370;4.832;2023-07-31T09:17:16;19.70;;;4.65;;
77451;SDS011;66537;52.370;4.832;2023-07-31T09:19:56;21.65;;;4.03;;
77451;SDS011;66537;52.370;4.832;2023-07-31T09:22:32;25.13;;;3.75;;
77451;SDS011;66537;52.370;4.832;2023-07-31T09:30:16;24.15;;;3.35;;
77451;SDS011;66537;52.370;4.832;2023-07-31T09:32:46;27.98;;;3.67;;
77451;SDS011;66537;52.370;4.832;2023-07-31T09:37:40;21.23;;;3.50;;
77451;SDS011;66537;52.370;4.832;2023-07-31T09:40:06;22.73;;;3.92;;
77451;SDS011;66537;52.370;4.832;2023-07-31T09:42:32;20.55;;;2.92;;
77451;SDS011;66537;52.370;4.832;2023-07-31T09:45:08;17.05;;;2.90;;
77451;SDS011;66537;52.370;4.832;2023-07-31T09:47:34;18.13;;;3.25;;
77451;SDS011;66537;52.370;4.832;2023-07-31T09:49:59;25.08;;;3.50;;
77451;SDS011;66537;52.370;4.832;2023-07-31T09:52:26;22.23;;;3.35;;
77451;SDS011;66537;52.370;4.832;2023-07-31T09:54:52;18.83;;;3.00;;
77451;SDS011;66537;52.370;4.832;2023-07-31T09:57:17;21.17;;;3.30;;
77451;SDS011;66537;52.370;4.832;2023-07-31T09:59:47;16.15;;;3.15;;
77451;SDS011;66537;52.370;4.832;2023-07-31T10:02:14;25.52;;;3.13;;
77451;SDS011;66537;52.370;4.832;2023-07-31T10:04:45;21.30;;;4.55;;
77451;SDS011;66537;52.370;4.832;2023-07-31T10:07:13;19.67;;;3.10;;
77451;SDS011;66537;52.370;4.832;2023-07-31T10:09:42;21.30;;;3.38;;
77451;SDS011;66537;52.370;4.832;2023-07-31T10:12:07;18.20;;;3.33;;
77451;SDS011;66537;52.370;4.832;2023-07-31T10:14:37;16.38;;;3.15;;
77451;SDS011;66537;52.370;4.832;2023-07-31T10:17:04;16.80;;;2.58;;
77451;SDS011;66537;52.370;4.832;2023-07-31T10:19:32;17.17;;;2.72;;
77451;SDS011;66537;52.370;4.832;2023-07-31T10:21:59;24.55;;;3.83;;
77451;SDS011;66537;52.370;4.832;2023-07-31T10:24:25;21.48;;;2.88;;
77451;SDS011;66537;52.370;4.832;2023-07-31T10:26:52;19.10;;;2.67;;
77451;SDS011;66537;52.370;4.832;2023-07-31T10:29:18;19.80;;;3.92;;
77451;SDS011;66537;52.370;4.832;2023-07-31T10:31:45;17.20;;;3.80;;
77451;SDS011;66537;52.370;4.832;2023-07-31T10:34:12;17.95;;;2.83;;
77451;SDS011;66537;52.370;4.832;2023-07-31T10:36:38;17.13;;;3.03;;
77451;SDS011;66537;52.370;4.832;2023-07-31T10:39:04;16.55;;;3.13;;
77451;SDS011;66537;52.370;4.832;2023-07-31T10:41:39;14.65;;;2.88;;
77451;SDS011;66537;52.370;4.832;2023-07-31T10:44:05;19.73;;;2.97;;
77451;SDS011;66537;52.370;4.832;2023-07-31T10:46:32;16.08;;;3.28;;
77451;SDS011;66537;52.370;4.832;2023-07-31T10:49:01;18.60;;;3.75;;
77451;SDS011;66537;52.370;4.832;2023-07-31T10:51:34;20.98;;;3.45;;
77451;SDS011;66537;52.370;4.832;2023-07-31T10:54:13;27.60;;;4.10;;
77451;SDS011;66537;52.370;4.832;2023-07-31T10:56:40;15.60;;;3.85;;
77451;SDS011;66537;52.370;4.832;2023-07-31T10:59:10;20.85;;;3.15;;
77451;SDS011;66537;52.370;4.832;2023-07-31T11:01:50;22.17;;;4.10;;
77451;SDS011;66537;52.370;4.832;2023-07-31T11:04:24;16.45;;;3.10;;
77451;SDS011;66537;52.370;4.832;2023-07-31T11:07:00;18.63;;;3.92;;
77451;SDS011;66537;52.370;4.832;2023-07-31T11:09:31;17.30;;;3.38;;
77451;SDS011;66537;52.370;4.832;2023-07-31T11:12:01;24.33;;;4.50;;
77451;SDS011;66537;52.370;4.832;2023-07-31T11:14:26;28.05;;;4.35;;
77451;SDS011;66537;52.370;4.832;2023-07-31T11:16:52;18.27;;;3.38;;
77451;SDS011;66537;52.370;4.832;2023-07-31T11:19:21;19.20;;;3.10;;
77451;SDS011;66537;52.370;4.832;2023-07-31T11:21:48;20.02;;;3.00;;
77451;SDS011;66537;52.370;4.832;2023-07-31T11:24:13;17.95;;;3.30;;
77451;SDS011;66537;52.370;4.832;2023-07-31T11:26:39;17.48;;;3.55;;
77451;SDS011;66537;52.370;4.832;2023-07-31T11:29:13;18.35;;;3.28;;
77451;SDS011;66537;52.370;4.832;2023-07-31T11:31:42;10.80;;;2.25;;
77451;SDS011;66537;52.370;4.832;2023-07-31T11:34:08;15.65;;;2.78;;
77451;SDS011;66537;52.370;4.832;2023-07-31T11:36:33;15.18;;;2.60;;
77451;SDS011;66537;52.370;4.832;2023-07-31T11:39:05;11.50;;;2.70;;
77451;SDS011;66537;52.370;4.832;2023-07-31T11:41:32;19.02;;;2.83;;
77451;SDS011;66537;52.370;4.832;2023-07-31T11:44:01;21.17;;;2.92;;
77451;SDS011;66537;52.370;4.832;2023-07-31T11:46:27;12.07;;;2.75;;
77451;SDS011;66537;52.370;4.832;2023-07-31T11:48:58;14.45;;;2.72;;
77451;SDS011;66537;52.370;4.832;2023-07-31T11:51:24;14.55;;;2.67;;
77451;SDS011;66537;52.370;4.832;2023-07-31T11:53:52;15.80;;;2.95;;
77451;SDS011;66537;52.370;4.832;2023-07-31T11:56:21;17.70;;;2.85;;
77451;SDS011;66537;52.370;4.832;2023-07-31T11:58:53;10.35;;;2.10;;
77451;SDS011;66537;52.370;4.832;2023-07-31T12:01:21;16.45;;;2.50;;
77451;SDS011;66537;52.370;4.832;2023-07-31T12:03:51;17.23;;;2.80;;
77451;SDS011;66537;52.370;4.832;2023-07-31T12:06:17;12.75;;;2.50;;
77451;SDS011;66537;52.370;4.832;2023-07-31T12:08:42;19.98;;;3.78;;
77451;SDS011;66537;52.370;4.832;2023-07-31T12:11:08;13.82;;;3.17;;
77451;SDS011;66537;52.370;4.832;2023-07-31T12:13:38;14.63;;;2.50;;
77451;SDS011;66537;52.370;4.832;2023-07-31T12:16:04;12.43;;;2.55;;
77451;SDS011;66537;52.370;4.832;2023-07-31T12:18:31;14.82;;;2.75;;
77451;SDS011;66537;52.370;4.832;2023-07-31T12:21:00;16.27;;;2.42;;
77451;SDS011;66537;52.370;4.832;2023-07-31T12:23:31;15.80;;;2.53;;
77451;SDS011;66537;52.370;4.832;2023-07-31T12:26:03;14.77;;;2.95;;
77451;SDS011;66537;52.370;4.832;2023-07-31T12:28:37;16.95;;;2.72;;
77451;SDS011;66537;52.370;4.832;2023-07-31T12:31:07;14.90;;;2.25;;
77451;SDS011;66537;52.370;4.832;2023-07-31T12:33:35;13.02;;;3.45;;
77451;SDS011;66537;52.370;4.832;2023-07-31T12:36:02;12.68;;;2.85;;
77451;SDS011;66537;52.370;4.832;2023-07-31T12:38:29;15.13;;;2.45;;
77451;SDS011;66537;52.370;4.832;2023-07-31T12:40:55;8.77;;;2.17;;
77451;SDS011;66537;52.370;4.832;2023-07-31T12:43:20;13.65;;;2.80;;
77451;SDS011;66537;52.370;4.832;2023-07-31T12:45:45;16.25;;;2.83;;
77451;SDS011;66537;52.370;4.832;2023-07-31T12:48:12;15.65;;;2.22;;
77451;SDS011;66537;52.370;4.832;2023-07-31T12:50:38;13.63;;;2.45;;
77451;SDS011;66537;52.370;4.832;2023-07-31T12:53:04;11.90;;;2.70;;
77451;SDS011;66537;52.370;4.832;2023-07-31T12:55:30;12.93;;;3.80;;
77451;SDS011;66537;52.370;4.832;2023-07-31T12:57:55;8.27;;;2.20;;
77451;SDS011;66537;52.370;4.832;2023-07-31T13:00:21;11.82;;;2.60;;
77451;SDS011;66537;52.370;4.832;2023-07-31T13:02:46;13.48;;;2.42;;
77451;SDS011;66537;52.370;4.832;2023-07-31T13:05:12;9.82;;;1.65;;
77451;SDS011;66537;52.370;4.832;2023-07-31T13:07:38;12.52;;;2.15;;
77451;SDS011;66537;52.370;4.832;2023-07-31T13:10:04;15.13;;;2.85;;
77451;SDS011;66537;52.370;4.832;2023-07-31T13:12:29;12.35;;;2.45;;
77451;SDS011;66537;52.370;4.832;2023-07-31T13:14:55;11.45;;;2.45;;
77451;SDS011;66537;52.370;4.832;2023-07-31T13:17:20;12.32;;;2.22;;
77451;SDS011;66537;52.370;4.832;2023-07-31T13:19:46;11.07;;;2.53;;
77451;SDS011;66537;52.370;4.832;2023-07-31T13:22:11;10.02;;;2.28;;
77451;SDS011;66537;52.370;4.832;2023-07-31T13:24:37;11.90;;;2.15;;
77451;SDS011;66537;52.370;4.832;2023-07-31T13:27:02;14.05;;;2.55;;
77451;SDS011;66537;52.370;4.832;2023-07-31T13:29:28;10.50;;;2.35;;
77451;SDS011;66537;52.370;4.832;2023-07-31T13:31:55;12.77;;;1.85;;
77451;SDS011;66537;52.370;4.832;2023-07-31T13:34:20;7.95;;;2.15;;
77451;SDS011;66537;52.370;4.832;2023-07-31T13:36:45;10.95;;;1.70;;
77451;SDS011;66537;52.370;4.832;2023-07-31T13:39:11;10.57;;;2.45;;
77451;SDS011;66537;52.370;4.832;2023-07-31T13:41:36;9.13;;;1.73;;
77451;SDS011;66537;52.370;4.832;2023-07-31T13:44:02;5.90;;;1.58;;
77451;SDS011;66537;52.370;4.832;2023-07-31T13:46:27;10.65;;;1.35;;
77451;SDS011;66537;52.370;4.832;2023-07-31T13:48:53;7.30;;;1.20;;
77451;SDS011;66537;52.370;4.832;2023-07-31T13:51:20;8.20;;;1.15;;
77451;SDS011;66537;52.370;4.832;2023-07-31T13:53:46;9.00;;;1.58;;
77451;SDS011;66537;52.370;4.832;2023-07-31T13:56:11;10.20;;;1.27;;
77451;SDS011;66537;52.370;4.832;2023-07-31T13:58:37;6.32;;;1.45;;
77451;SDS011;66537;52.370;4.832;2023-07-31T14:01:02;5.70;;;0.80;;
77451;SDS011;66537;52.370;4.832;2023-07-31T14:03:28;4.97;;;1.20;;
77451;SDS011;66537;52.370;4.832;2023-07-31T14:05:53;5.38;;;1.23;;
77451;SDS011;66537;52.370;4.832;2023-07-31T14:08:20;5.13;;;0.85;;
77451;SDS011;66537;52.370;4.832;2023-07-31T14:10:46;10.30;;;2.33;;
77451;SDS011;66537;52.370;4.832;2023-07-31T14:13:11;8.82;;;1.73;;
77451;SDS011;66537;52.370;4.832;2023-07-31T14:15:36;6.85;;;1.60;;
77451;SDS011;66537;52.370;4.832;2023-07-31T14:18:02;7.47;;;2.10;;
77451;SDS011;66537;52.370;4.832;2023-07-31T14:20:27;7.28;;;2.17;;
77451;SDS011;66537;52.370;4.832;2023-07-31T14:22:53;8.82;;;2.22;;
77451;SDS011;66537;52.370;4.832;2023-07-31T14:25:19;7.90;;;2.67;;
77451;SDS011;66537;52.370;4.832;2023-07-31T14:27:45;10.82;;;2.83;;
77451;SDS011;66537;52.370;4.832;2023-07-31T14:30:10;9.90;;;2.80;;
77451;SDS011;66537;52.370;4.832;2023-07-31T14:32:36;16.30;;;3.30;;
77451;SDS011;66537;52.370;4.832;2023-07-31T14:35:02;17.50;;;3.05;;
77451;SDS011;66537;52.370;4.832;2023-07-31T14:37:36;17.95;;;2.85;;
77451;SDS011;66537;52.370;4.832;2023-07-31T14:40:05;21.85;;;3.90;;
77451;SDS011;66537;52.370;4.832;2023-07-31T14:42:31;15.93;;;3.30;;
77451;SDS011;66537;52.370;4.832;2023-07-31T14:44:56;20.35;;;3.30;;
77451;SDS011;66537;52.370;4.832;2023-07-31T14:47:21;18.42;;;3.05;;